Time;durP1;ratioP1;P1;durP2;ratioP2;P2;SDS_P1;SDS_P2;PMS_P1;PMS_P2;Temp;Humidity;BMP_temperature;BMP_pressure;BME280_temperature;BME280_humidity;BME280_pressure;Samples;Min_cycle;Max_cycle;Signal;HPM_P1;HPM_P2
2021/03/14 00:00:57;;;;;;;9.30;6.90;;;;;;;14.09;50.26;99130.80;1781562;79;21130;-72
2021/03/14 00:03:28;;;;;;;8.73;7.22;;;;;;;14.08;50.22;99131.81;1786318;79;21590;-71
2021/03/14 00:05:57;;;;;;;9.33;7.10;;;;;;;14.08;50.18;99121.13;1787555;78;22260;-70
2021/03/14 00:08:27;;;;;;;9.75;7.37;;;;;;;14.07;50.19;99117.64;1788196;79;21153;-69
2021/03/14 00:10:59;;;;;;;7.78;6.97;;;;;;;14.06;50.17;99116.02;1781117;78;21150;-70
2021/03/14 00:13:30;;;;;;;8.03;7.22;;;;;;;14.07;50.17;99112.83;1783549;79;21267;-71
2021/03/14 00:15:58;;;;;;;8.73;7.67;;;;;;;14.06;50.10;99105.83;1782613;79;21142;-71
2021/03/14 00:18:35;;;;;;;8.38;7.50;;;;;;;14.05;50.08;99107.69;1785688;79;21162;-69
2021/03/14 00:21:02;;;;;;;8.98;7.53;;;;;;;14.06;50.04;99108.01;1785149;79;21202;-70
2021/03/14 00:23:30;;;;;;;8.43;7.22;;;;;;;14.05;50.00;99098.86;1781940;79;21146;-71
2021/03/14 00:25:57;;;;;;;8.68;6.97;;;;;;;14.03;50.01;99096.39;1777593;79;21122;-69
2021/03/14 00:28:25;;;;;;;8.68;7.35;;;;;;;14.05;49.98;99094.33;1779801;79;21166;-69
2021/03/14 00:30:53;;;;;;;7.83;7.03;;;;;;;14.05;49.96;99090.84;1780873;79;21160;-70
2021/03/14 00:33:21;;;;;;;9.13;6.92;;;;;;;14.04;49.93;99087.36;1781751;79;21461;-69
2021/03/14 00:35:49;;;;;;;7.08;6.20;;;;;;;14.04;49.90;99092.70;1784633;78;21136;-69
2021/03/14 00:38:16;;;;;;;7.70;6.83;;;;;;;14.04;49.89;99095.38;1784975;79;21768;-70
2021/03/14 00:40:44;;;;;;;8.98;7.53;;;;;;;14.03;49.88;99095.05;1788201;79;21601;-70
2021/03/14 00:43:15;;;;;;;7.92;6.70;;;;;;;14.03;49.83;99091.05;1776175;80;21196;-71
2021/03/14 00:45:42;;;;;;;7.70;6.78;;;;;;;14.02;49.80;99089.39;1791750;78;21634;-68
2021/03/14 00:48:11;;;;;;;7.58;6.67;;;;;;;14.03;49.81;99096.91;1793412;78;21181;-70
2021/03/14 00:50:41;;;;;;;7.47;6.33;;;;;;;14.02;49.75;99093.39;1789046;78;21150;-70
2021/03/14 00:53:11;;;;;;;8.50;6.90;;;;;;;14.01;49.72;99082.95;1792043;77;21169;-71
2021/03/14 00:55:41;;;;;;;7.25;6.53;;;;;;;14.02;49.70;99089.91;1800599;77;21382;-70
2021/03/14 00:58:08;;;;;;;7.80;7.00;;;;;;;14.01;49.67;99085.62;1805509;77;21158;-70
2021/03/14 01:00:36;;;;;;;8.48;7.47;;;;;;;14.02;49.65;99088.58;1797527;77;21153;-71
2021/03/14 01:03:04;;;;;;;7.60;6.62;;;;;;;14.00;49.66;99096.79;1795638;77;21185;-72
2021/03/14 01:05:33;;;;;;;7.78;6.80;;;;;;;13.99;49.62;99087.67;1796499;78;21645;-71
2021/03/14 01:08:01;;;;;;;7.83;6.85;;;;;;;13.98;49.63;99090.02;1811711;78;21483;-71
2021/03/14 01:10:29;;;;;;;7.97;7.12;;;;;;;13.92;49.59;99076.45;1812630;77;21126;-71
2021/03/14 01:12:59;;;;;;;7.65;6.87;;;;;;;13.98;49.58;99085.50;1791826;77;21177;-71
2021/03/14 01:15:27;;;;;;;7.90;6.33;;;;;;;13.97;49.57;99090.55;1796373;77;21177;-71
2021/03/14 01:17:57;;;;;;;8.08;6.95;;;;;;;13.95;49.57;99086.73;1805366;78;21535;-71
2021/03/14 01:20:25;;;;;;;7.25;6.47;;;;;;;13.95;49.55;99084.59;1741595;80;21412;-70
2021/03/14 01:22:52;;;;;;;7.83;6.62;;;;;;;13.95;49.54;99088.08;1798141;78;21106;-72
2021/03/14 01:25:20;;;;;;;7.80;6.45;;;;;;;13.94;49.56;99086.42;1792633;78;21161;-70
2021/03/14 01:27:49;;;;;;;8.35;6.67;;;;;;;13.94;49.55;99081.08;1804038;78;21182;-69
2021/03/14 01:30:18;;;;;;;7.90;7.10;;;;;;;13.94;49.49;99078.41;1804582;77;21117;-69
2021/03/14 01:32:46;;;;;;;7.92;6.67;;;;;;;13.93;49.48;99070.63;1797794;78;21353;-70
2021/03/14 01:35:14;;;;;;;6.90;6.10;;;;;;;13.93;49.46;99068.77;1788731;78;21606;-69
2021/03/14 01:37:42;;;;;;;8.10;6.90;;;;;;;13.92;49.43;99067.63;1789347;78;21090;-69
2021/03/14 01:40:12;;;;;;;7.08;6.37;;;;;;;13.92;49.42;99059.10;1793612;78;21157;-70
2021/03/14 01:42:40;;;;;;;9.65;7.50;;;;;;;13.91;49.40;99058.81;1802467;77;21162;-69
2021/03/14 01:45:08;;;;;;;7.45;6.62;;;;;;;13.90;49.38;99067.83;1787687;78;21446;-69
2021/03/14 01:47:39;;;;;;;7.10;6.40;;;;;;;13.91;49.37;99064.67;1775151;78;21165;-70
2021/03/14 01:50:15;;;;;;;7.53;6.47;;;;;;;13.90;49.36;99069.17;1783832;77;21222;-69
2021/03/14 01:52:44;;;;;;;7.33;6.55;;;;;;;13.89;49.34;99068.06;1790999;78;21070;-71
2021/03/14 01:55:13;;;;;;;7.05;6.33;;;;;;;13.88;49.34;99063.73;1795863;78;21146;-69
2021/03/14 01:57:41;;;;;;;8.83;6.70;;;;;;;13.87;49.31;99073.60;1781764;77;21357;-70
2021/03/14 02:00:15;;;;;;;8.15;6.62;;;;;;;13.86;49.28;99062.60;1778733;77;21163;-70
2021/03/14 02:02:43;;;;;;;6.75;6.05;;;;;;;13.85;49.27;99059.64;1786656;78;21138;-70
2021/03/14 02:05:14;;;;;;;7.17;6.47;;;;;;;13.86;49.25;99064.45;1784502;78;21594;-70
2021/03/14 02:07:44;;;;;;;7.58;6.50;;;;;;;13.85;49.21;99072.98;1779619;78;21185;-70
2021/03/14 02:10:13;;;;;;;7.28;6.55;;;;;;;13.84;49.22;99066.52;1779563;79;21196;-72
2021/03/14 02:13:06;;;;;;;7.90;6.95;;;;;;;13.84;49.23;99057.98;1773224;79;21151;-70
2021/03/14 02:15:36;;;;;;;7.37;6.58;;;;;;;13.82;49.15;99059.23;1771735;79;21198;-71
2021/03/14 02:18:05;;;;;;;6.87;6.17;;;;;;;13.82;49.14;99068.57;1774605;77;21178;-70
2021/03/14 02:20:33;;;;;;;7.62;6.80;;;;;;;13.80;49.10;99087.45;1790104;78;21504;-70
2021/03/14 02:23:27;;;;;;;8.03;7.22;;;;;;;13.80;49.11;99086.13;1791328;79;21162;-71
2021/03/14 02:26:04;;;;;;;7.95;6.92;;;;;;;13.80;49.12;99084.78;1772631;79;21166;-71
2021/03/14 02:28:31;;;;;;;8.38;7.47;;;;;;;13.77;49.12;99071.84;1790561;77;21190;-71
2021/03/14 02:30:59;;;;;;;7.67;6.95;;;;;;;13.76;49.12;99079.55;1786480;79;21111;-72
2021/03/14 02:33:28;;;;;;;7.05;6.35;;;;;;;13.75;49.15;99073.40;1731452;80;21120;-70
2021/03/14 02:35:55;;;;;;;7.10;6.40;;;;;;;13.74;49.13;99070.93;1716691;81;22299;-72
2021/03/14 02:38:23;;;;;;;8.40;7.42;;;;;;;13.74;49.49;99077.08;1785223;78;21142;-73
2021/03/14 02:40:51;;;;;;;7.62;6.83;;;;;;;13.74;50.20;99069.59;1781877;78;21095;-71
2021/03/14 02:43:19;;;;;;;8.08;6.62;;;;;;;13.74;50.98;99074.94;1798975;77;21161;-70
2021/03/14 02:45:47;;;;;;;8.15;6.83;;;;;;;13.74;51.64;99069.59;1804757;77;21165;-73
2021/03/14 02:48:15;;;;;;;7.58;6.75;;;;;;;13.74;52.04;99070.93;1762932;79;21384;-70
2021/03/14 02:50:46;;;;;;;8.08;7.28;;;;;;;13.75;52.44;99077.89;1811949;77;21558;-71
2021/03/14 02:53:17;;;;;;;7.92;7.12;;;;;;;13.74;52.69;99071.74;1804045;77;21763;-71
2021/03/14 02:55:44;;;;;;;7.97;7.17;;;;;;;13.74;52.84;99073.08;1806669;77;21180;-72
2021/03/14 02:58:12;;;;;;;8.35;7.55;;;;;;;13.74;52.96;99077.08;1807876;78;21447;-71
2021/03/14 03:00:43;;;;;;;8.85;7.25;;;;;;;13.75;53.14;99084.56;1781974;78;21201;-70
2021/03/14 03:03:10;;;;;;;8.85;7.20;;;;;;;13.75;53.27;99081.90;1810194;78;21161;-70
2021/03/14 03:05:38;;;;;;;8.93;7.25;;;;;;;13.74;53.31;99079.75;1809688;77;21113;-69
2021/03/14 03:08:06;;;;;;;7.72;7.00;;;;;;;13.75;53.40;99085.91;1808092;77;21153;-68
2021/03/14 03:10:38;;;;;;;7.83;7.00;;;;;;;13.75;53.41;99085.91;1795899;77;21168;-70
2021/03/14 03:13:05;;;;;;;7.85;7.05;;;;;;;13.76;53.46;99070.21;1809579;77;21371;-72
2021/03/14 03:15:33;;;;;;;9.13;7.40;;;;;;;13.75;53.46;99070.73;1797610;78;21189;-71
2021/03/14 03:18:01;;;;;;;7.58;6.78;;;;;;;13.76;53.46;99059.53;1798835;78;21562;-71
2021/03/14 03:20:29;;;;;;;7.22;6.60;;;;;;;13.75;53.50;99076.07;1797147;78;21129;-70
2021/03/14 03:22:58;;;;;;;8.05;7.25;;;;;;;13.76;53.50;99075.55;1816143;77;21137;-71
2021/03/14 03:25:26;;;;;;;9.05;7.58;;;;;;;13.76;53.54;99083.55;1801308;77;21432;-70
2021/03/14 03:27:54;;;;;;;9.23;7.90;;;;;;;13.75;53.55;99069.89;1809475;77;21158;-71
2021/03/14 03:30:24;;;;;;;8.05;7.25;;;;;;;13.75;53.53;99082.75;1806797;77;21154;-71
2021/03/14 03:32:52;;;;;;;10.90;7.97;;;;;;;13.76;53.49;99078.22;1824576;78;21122;-71
2021/03/14 03:35:20;;;;;;;8.45;7.58;;;;;;;13.76;53.43;99088.90;1807597;78;21140;-70
2021/03/14 03:37:49;;;;;;;9.03;8.15;;;;;;;13.75;53.42;99072.06;1821795;77;22246;-69
2021/03/14 03:40:21;;;;;;;9.38;8.48;;;;;;;13.76;53.38;99082.22;1808381;78;21182;-72
2021/03/14 03:42:57;;;;;;;9.13;8.20;;;;;;;13.76;53.40;99064.34;1805702;78;21067;-70
2021/03/14 03:45:24;;;;;;;10.03;9.03;;;;;;;13.75;53.38;99062.72;1821405;77;21118;-71
2021/03/14 03:47:53;;;;;;;10.20;9.13;;;;;;;13.75;53.40;99062.72;1797821;77;21110;-72
2021/03/14 03:50:22;;;;;;;9.83;8.75;;;;;;;13.73;53.37;99063.44;1802034;78;21695;-70
2021/03/14 03:52:52;;;;;;;8.93;7.90;;;;;;;13.75;53.36;99064.55;1798250;77;21205;-70
2021/03/14 03:55:19;;;;;;;9.68;8.68;;;;;;;13.75;53.42;99068.55;1754858;80;21228;-71
2021/03/14 03:57:48;;;;;;;9.83;8.80;;;;;;;13.74;53.43;99050.39;1780395;78;21173;-70
2021/03/14 04:00:18;;;;;;;10.68;9.55;;;;;;;13.74;53.38;99054.91;1761800;80;21166;-72
2021/03/14 04:02:46;;;;;;;16.25;8.85;;;;;;;13.74;53.40;99048.23;1795059;79;22106;-72
2021/03/14 04:05:15;;;;;;;10.10;9.08;;;;;;;13.74;53.43;99042.91;1760058;80;21192;-71
2021/03/14 04:07:44;;;;;;;12.18;10.32;;;;;;;13.74;53.37;99044.23;1794862;78;21166;-71
2021/03/14 04:10:16;;;;;;;10.43;9.10;;;;;;;13.74;53.35;99029.55;1777764;80;21200;-71
2021/03/14 04:12:44;;;;;;;10.98;9.90;;;;;;;13.75;53.35;99044.53;1776530;78;21615;-70
2021/03/14 04:15:14;;;;;;;12.73;11.05;;;;;;;13.73;53.35;99039.42;1776438;80;22945;-71
2021/03/14 04:17:41;;;;;;;12.07;10.18;;;;;;;13.73;53.30;99045.25;1782547;78;21490;-72
2021/03/14 04:20:14;;;;;;;11.22;10.05;;;;;;;13.74;53.33;99049.05;1755782;80;21213;-72
2021/03/14 04:22:45;;;;;;;11.95;10.72;;;;;;;13.74;53.37;99057.58;1782046;79;21186;-70
2021/03/14 04:25:13;;;;;;;11.10;9.93;;;;;;;13.72;53.44;99046.30;1788384;79;21178;-71
2021/03/14 04:27:45;;;;;;;13.18;11.45;;;;;;;13.73;53.45;99046.58;1776573;79;22127;-71
2021/03/14 04:30:13;;;;;;;10.98;9.70;;;;;;;13.73;53.46;99055.92;1789917;79;21233;-71
2021/03/14 04:32:41;;;;;;;12.05;10.70;;;;;;;13.72;53.49;99047.63;1790524;79;21158;-70
2021/03/14 04:35:11;;;;;;;11.30;10.13;;;;;;;13.72;53.52;99057.78;1789390;79;21171;-71
2021/03/14 04:37:39;;;;;;;13.93;12.53;;;;;;;13.72;53.53;99050.30;1784319;78;21127;-70
2021/03/14 04:40:11;;;;;;;12.30;10.88;;;;;;;13.72;53.52;99052.97;1789451;78;21203;-71
2021/03/14 04:42:41;;;;;;;12.18;10.68;;;;;;;13.72;53.46;99048.96;1792267;78;21163;-71
2021/03/14 04:45:10;;;;;;;12.75;11.00;;;;;;;13.72;53.52;99060.97;1780219;79;21122;-72
2021/03/14 04:47:42;;;;;;;12.65;11.35;;;;;;;13.71;53.54;99059.31;1771424;79;21153;-71
2021/03/14 04:50:14;;;;;;;12.98;11.33;;;;;;;13.71;53.57;99059.31;1788648;78;21191;-71
2021/03/14 04:52:44;;;;;;;12.95;11.38;;;;;;;13.72;53.56;99052.97;1782340;78;22257;-72
2021/03/14 04:55:14;;;;;;;12.07;10.80;;;;;;;13.70;53.52;99070.52;1776435;79;21174;-72
2021/03/14 04:57:42;;;;;;;12.18;10.70;;;;;;;13.71;53.49;99044.63;1780761;78;21638;-71
2021/03/14 05:00:12;;;;;;;12.45;10.98;;;;;;;13.72;53.38;99050.30;1781837;78;22060;-71
2021/03/14 05:02:45;;;;;;;13.15;11.75;;;;;;;13.72;53.37;99045.77;1769296;78;21123;-72
2021/03/14 05:05:13;;;;;;;12.55;11.08;;;;;;;13.73;53.33;99037.24;1773623;78;21222;-72
2021/03/14 05:07:42;;;;;;;12.63;10.70;;;;;;;13.73;53.35;99050.59;1776184;79;21170;-71
2021/03/14 05:10:22;;;;;;;15.28;12.10;;;;;;;13.73;53.36;99058.59;1769942;78;21135;-71
2021/03/14 05:12:50;;;;;;;13.10;11.35;;;;;;;13.73;53.34;99058.59;1778625;79;21114;-73
2021/03/14 05:15:18;;;;;;;12.70;11.40;;;;;;;13.73;53.34;99050.59;1790561;79;21111;-71
2021/03/14 05:17:47;;;;;;;14.13;11.68;;;;;;;13.73;53.33;99058.59;1765649;79;21170;-71
2021/03/14 05:20:17;;;;;;;15.00;11.20;;;;;;;13.73;53.31;99058.59;1785108;78;21548;-71
2021/03/14 05:22:45;;;;;;;12.98;11.18;;;;;;;13.73;53.30;99050.09;1763443;79;21554;-71
2021/03/14 05:25:18;;;;;;;13.15;11.50;;;;;;;13.75;53.29;99054.72;1770451;78;21147;-72
2021/03/14 05:27:51;;;;;;;12.78;11.43;;;;;;;13.76;53.24;99051.52;1772884;79;21274;-71
2021/03/14 05:30:25;;;;;;;13.75;11.68;;;;;;;13.76;53.18;99068.88;1768529;78;22236;-71
2021/03/14 05:32:55;;;;;;;13.10;10.88;;;;;;;13.76;53.19;99079.55;1786244;79;21362;-73
2021/03/14 05:35:26;;;;;;;14.50;11.22;;;;;;;13.76;53.18;99064.88;1779354;78;21175;-72
2021/03/14 05:37:54;;;;;;;13.05;11.28;;;;;;;13.76;53.19;99072.36;1779341;79;21099;-71
2021/03/14 05:40:23;;;;;;;11.78;10.43;;;;;;;13.78;53.16;99074.02;1770222;78;21202;-72
2021/03/14 05:42:51;;;;;;;11.40;10.00;;;;;;;13.77;53.10;99054.48;1770694;79;22104;-70
2021/03/14 05:45:19;;;;;;;11.00;9.88;;;;;;;13.78;53.01;99058.81;1773781;79;21169;-70
2021/03/14 05:47:47;;;;;;;12.10;9.75;;;;;;;13.80;52.95;99065.28;1777588;78;22109;-71
2021/03/14 05:50:21;;;;;;;10.08;8.90;;;;;;;13.80;52.91;99061.28;1783056;79;21202;-69
2021/03/14 05:52:49;;;;;;;;;;;;;;;13.81;52.88;99062.91;1786933;78;21111;-70
2021/03/14 05:55:22;;;;;;;11.28;9.53;;;;;;;13.82;52.87;99057.89;1798750;78;21192;-70
2021/03/14 05:57:51;;;;;;;10.03;9.03;;;;;;;13.74;52.92;99071.74;1791760;78;21153;-70
2021/03/14 06:00:27;;;;;;;10.05;9.05;;;;;;;13.74;52.92;99070.41;1785673;79;21119;-70
2021/03/14 06:02:57;;;;;;;10.38;9.28;;;;;;;13.75;52.95;99072.56;1778495;78;21122;-72
2021/03/14 06:05:27;;;;;;;10.28;9.10;;;;;;;13.76;52.92;99056.86;1780849;79;21130;-72
2021/03/14 06:07:56;;;;;;;11.90;10.08;;;;;;;13.76;52.93;99056.86;1789250;79;22273;-72
2021/03/14 06:10:24;;;;;;;10.90;9.30;;;;;;;13.77;52.93;99043.81;1789327;79;21174;-72
2021/03/14 06:12:52;;;;;;;10.63;9.53;;;;;;;13.78;52.89;99065.48;1781223;78;21174;-71
2021/03/14 06:15:19;;;;;;;10.15;8.98;;;;;;;13.79;52.83;99041.78;1779866;78;21290;-71
2021/03/14 06:17:48;;;;;;;10.70;9.10;;;;;;;13.80;52.75;99062.09;1785717;78;21130;-71
2021/03/14 06:23:23;;;;;;;9.80;8.60;;;;;;;13.88;52.70;99049.05;1758593;79;28706;-72
2021/03/14 06:25:53;;;;;;;9.10;8.08;;;;;;;13.84;52.67;99053.98;1732676;82;21167;-65
2021/03/14 06:28:35;;;;;;;8.95;8.05;;;;;;;13.86;52.79;99133.35;1737225;80;21260;-65
2021/03/14 06:31:19;;;;;;;9.33;8.23;;;;;;;13.85;52.86;99115.70;1744109;81;21143;-66
2021/03/14 06:33:47;;;;;;;9.68;8.65;;;;;;;13.83;52.81;99130.27;1738792;81;21171;-65
2021/03/14 06:36:21;;;;;;;10.13;9.10;;;;;;;13.79;52.73;99119.20;1734645;80;21194;-66
2021/03/14 06:38:49;;;;;;;9.70;8.70;;;;;;;13.77;52.62;99111.88;1753559;81;21568;-68
2021/03/14 06:41:20;;;;;;;10.08;9.00;;;;;;;13.75;52.55;99119.27;1736790;80;21675;-65
2021/03/14 06:43:56;;;;;;;9.73;8.73;;;;;;;13.71;52.46;99113.55;1741053;81;21165;-64
2021/03/14 06:46:32;;;;;;;10.18;9.08;;;;;;;13.69;52.39;99126.24;1724682;80;21171;-66
2021/03/14 06:49:17;;;;;;;9.53;8.38;;;;;;;13.67;52.27;99143.50;1754853;80;21303;-69
2021/03/14 06:51:50;;;;;;;9.50;8.10;;;;;;;13.66;52.16;99129.86;1755762;79;21126;-66
2021/03/14 06:54:41;;;;;;;10.08;8.68;;;;;;;13.64;52.08;99138.06;1750258;81;27706;-66
2021/03/14 06:57:18;;;;;;;9.18;8.18;;;;;;;13.61;51.98;99135.78;1750408;79;21162;-66
2021/03/14 06:59:54;;;;;;;9.53;8.43;;;;;;;13.59;51.89;99142.36;1748139;81;21190;-64
2021/03/14 07:02:30;;;;;;;9.53;8.08;;;;;;;13.55;51.84;99145.42;1742405;81;21586;-65
2021/03/14 07:05:04;;;;;;;10.10;8.80;;;;;;;13.55;51.78;99140.60;1750425;79;21137;-66
2021/03/14 07:07:39;;;;;;;9.05;8.13;;;;;;;13.53;51.70;99141.31;1752855;79;21455;-66
2021/03/14 07:10:14;;;;;;;9.70;8.35;;;;;;;13.51;51.63;99152.19;1794358;77;21170;-66
2021/03/14 07:12:45;;;;;;;9.10;8.05;;;;;;;13.50;51.58;99165.72;1788772;79;21591;-66
2021/03/14 07:15:19;;;;;;;8.43;7.45;;;;;;;13.48;51.50;99159.28;1785236;79;21669;-65
2021/03/14 07:17:56;;;;;;;9.30;8.23;;;;;;;13.47;51.44;99158.14;1791775;79;21118;-66
2021/03/14 07:20:27;;;;;;;9.55;8.55;;;;;;;13.46;51.37;99162.66;1798914;79;21284;-66
2021/03/14 07:23:06;;;;;;;8.83;7.67;;;;;;;13.45;51.31;99169.01;1784484;79;21183;-66
2021/03/14 07:25:44;;;;;;;8.70;7.75;;;;;;;13.44;51.24;99167.34;1750076;81;21176;-65
2021/03/14 07:28:12;;;;;;;8.63;7.72;;;;;;;13.43;51.18;99163.05;1689909;82;21192;-66
2021/03/14 07:30:39;;;;;;;9.05;7.85;;;;;;;13.42;51.12;99167.25;1739791;82;21139;-66
2021/03/14 07:33:06;;;;;;;8.40;7.58;;;;;;;13.41;51.08;99150.42;1738352;81;21790;-66
2021/03/14 07:35:34;;;;;;;9.23;7.85;;;;;;;13.41;51.04;99155.77;1734272;81;21591;-66
2021/03/14 07:38:01;;;;;;;8.90;7.92;;;;;;;13.41;50.97;99157.09;1739111;82;21134;-65
2021/03/14 07:40:30;;;;;;;9.25;7.80;;;;;;;13.40;50.91;99166.11;1734395;81;21184;-65
2021/03/14 07:43:00;;;;;;;8.00;7.15;;;;;;;13.41;50.85;99165.62;1738999;81;21190;-65
2021/03/14 07:45:30;;;;;;;8.80;7.83;;;;;;;13.41;50.78;99154.42;1739110;81;23132;-67
2021/03/14 07:48:02;;;;;;;8.43;7.47;;;;;;;13.41;50.70;99161.09;1739075;81;21211;-66
2021/03/14 07:50:35;;;;;;;8.55;7.75;;;;;;;13.42;50.64;99144.05;1737460;81;21215;-66
2021/03/14 07:53:12;;;;;;;8.35;7.28;;;;;;;13.44;50.55;99156.67;1766452;78;28647;-65
2021/03/14 07:55:39;;;;;;;10.00;8.30;;;;;;;13.43;50.47;99140.89;1741552;80;21183;-67
2021/03/14 07:58:13;;;;;;;7.95;7.00;;;;;;;13.43;50.41;99145.70;1720485;80;21375;-65
2021/03/14 08:00:43;;;;;;;7.78;7.00;;;;;;;13.44;50.37;99159.34;1716902;81;21170;-66
2021/03/14 08:03:10;;;;;;;8.65;7.50;;;;;;;13.45;50.27;99140.98;1752587;80;21115;-65
2021/03/14 08:05:44;;;;;;;7.87;7.03;;;;;;;13.46;50.23;99147.98;1755526;81;21119;-65
2021/03/14 08:08:29;;;;;;;7.72;6.92;;;;;;;13.48;50.18;99145.09;1732532;80;21139;-66
2021/03/14 08:10:59;;;;;;;8.00;7.10;;;;;;;13.49;50.12;99146.23;1739317;81;21153;-65
2021/03/14 08:13:35;;;;;;;8.20;7.40;;;;;;;13.49;50.07;99151.56;1746665;79;21248;-66
2021/03/14 08:16:08;;;;;;;8.20;7.35;;;;;;;13.51;50.01;99139.36;1764846;81;21138;-66
2021/03/14 08:18:49;;;;;;;7.92;7.05;;;;;;;13.53;49.93;99141.31;1741453;81;21629;-65
2021/03/14 08:21:28;;;;;;;7.58;6.62;;;;;;;13.54;49.90;99170.97;1747145;81;21165;-65
2021/03/14 08:23:59;;;;;;;7.83;7.05;;;;;;;13.55;49.85;99149.94;1752940;79;21213;-67
2021/03/14 08:26:32;;;;;;;7.60;6.60;;;;;;;13.56;49.80;99132.41;1746281;80;21204;-64
2021/03/14 08:29:09;;;;;;;9.08;7.47;;;;;;;13.57;49.73;99134.03;1760125;79;25789;-65
2021/03/14 08:31:45;;;;;;;7.28;6.58;;;;;;;13.60;49.68;99143.50;1728070;81;21189;-65
2021/03/14 08:34:29;;;;;;;7.47;6.78;;;;;;;13.63;49.63;99142.26;1767840;79;21139;-66
2021/03/14 08:36:58;;;;;;;7.30;6.60;;;;;;;13.65;49.58;99150.89;1765301;79;22300;-66
2021/03/14 08:39:34;;;;;;;6.78;6.08;;;;;;;13.66;49.54;99141.87;1744223;79;21143;-65
2021/03/14 08:42:04;;;;;;;7.15;6.45;;;;;;;13.69;49.50;99155.61;1786872;77;21148;-66
2021/03/14 08:44:44;;;;;;;7.12;6.37;;;;;;;13.71;49.42;99152.25;1778414;77;21126;-66
2021/03/14 08:47:23;;;;;;;7.00;6.25;;;;;;;13.75;49.39;99149.97;1768714;77;21165;-66
2021/03/14 08:50:05;;;;;;;6.97;6.28;;;;;;;13.82;49.37;99166.83;1763683;78;28269;-66
2021/03/14 08:52:34;;;;;;;7.50;6.67;;;;;;;13.82;49.32;99163.34;1737056;80;21155;-65
2021/03/14 08:55:12;;;;;;;6.75;6.08;;;;;;;13.86;49.33;99170.73;1758215;79;22305;-65
2021/03/14 09:00:15;;;;;;;6.90;6.20;;;;;;;13.95;49.13;99166.03;1759964;79;28183;-66
2021/03/14 09:02:45;;;;;;;6.50;5.90;;;;;;;13.85;49.16;99186.45;1741434;82;21580;-65
2021/03/14 09:05:30;;;;;;;7.12;6.42;;;;;;;13.92;49.09;99179.26;1766202;79;28270;-66
2021/03/14 09:08:00;;;;;;;7.50;6.67;;;;;;;13.90;48.98;99171.97;1746247;79;21172;-67
2021/03/14 09:10:35;;;;;;;7.33;6.62;;;;;;;13.93;48.92;99177.44;1767446;79;22298;-65
2021/03/14 09:13:04;;;;;;;6.70;6.00;;;;;;;13.92;48.84;99177.92;1758971;79;21038;-65
2021/03/14 09:15:36;;;;;;;6.62;5.87;;;;;;;13.92;48.79;99171.25;1759425;79;21274;-66
2021/03/14 09:18:23;;;;;;;6.58;5.92;;;;;;;13.91;48.79;99162.95;1758041;79;21209;-65
2021/03/14 09:20:58;;;;;;;6.05;5.47;;;;;;;13.90;48.76;99181.31;1754646;79;21157;-66
2021/03/14 09:23:27;;;;;;;6.30;5.65;;;;;;;13.90;48.73;99170.63;1758182;79;21424;-65
2021/03/14 09:25:55;;;;;;;6.17;5.58;;;;;;;13.88;48.74;99151.84;1772276;77;21130;-66
2021/03/14 09:28:24;;;;;;;5.67;5.17;;;;;;;13.88;48.72;99155.33;1799018;77;21153;-65
2021/03/14 09:30:53;;;;;;;6.83;6.15;;;;;;;13.87;48.70;99152.37;1796269;77;21214;-66
2021/03/14 09:33:22;;;;;;;5.87;5.30;;;;;;;13.86;48.71;99152.05;1789932;77;21142;-65
2021/03/14 09:35:55;;;;;;;5.37;4.87;;;;;;;13.86;48.70;99148.03;1784607;77;21185;-65
2021/03/14 09:38:33;;;;;;;5.85;5.25;;;;;;;13.89;48.72;99134.30;1788578;78;28274;-66
2021/03/14 09:41:02;;;;;;;5.80;5.22;;;;;;;13.86;48.71;99132.02;1774221;80;21135;-67
2021/03/14 09:43:32;;;;;;;6.28;5.53;;;;;;;13.87;48.73;99155.53;1798999;78;21386;-67
2021/03/14 09:46:08;;;;;;;5.40;4.90;;;;;;;13.87;48.71;99136.34;1810719;78;21029;-66
2021/03/14 09:48:46;;;;;;;5.83;5.30;;;;;;;13.89;48.72;99139.63;1776614;78;21170;-66
2021/03/14 09:51:17;;;;;;;5.72;5.15;;;;;;;13.91;48.68;99122.08;1771932;79;21601;-67
2021/03/14 09:53:44;;;;;;;6.05;5.28;;;;;;;13.92;48.63;99124.52;1788142;79;21174;-67
2021/03/14 09:56:14;;;;;;;4.83;4.40;;;;;;;13.93;48.61;99134.19;1784608;79;21352;-68
2021/03/14 09:59:03;;;;;;;6.08;5.03;;;;;;;13.94;48.59;99123.80;1786208;79;21181;-66
2021/03/14 10:01:37;;;;;;;5.58;5.08;;;;;;;13.96;48.55;99124.94;1756328;79;21195;-66
2021/03/14 10:04:05;;;;;;;6.00;4.80;;;;;;;13.99;48.55;99117.05;1783026;79;21185;-71
2021/03/14 10:06:43;;;;;;;5.33;4.83;;;;;;;14.06;48.60;99115.17;1761217;79;28264;-68
2021/03/14 10:09:24;;;;;;;5.67;5.17;;;;;;;14.06;48.57;99116.52;1734823;80;21195;-66
2021/03/14 10:11:55;;;;;;;5.90;5.30;;;;;;;14.09;48.58;99112.11;1746634;82;21199;-68
2021/03/14 10:14:24;;;;;;;5.37;4.87;;;;;;;14.11;48.53;99110.05;1753106;80;21070;-66
2021/03/14 10:16:52;;;;;;;6.10;5.50;;;;;;;14.14;48.51;99128.34;1740582;80;21119;-67
2021/03/14 10:19:21;;;;;;;5.65;4.83;;;;;;;14.18;48.44;99112.21;1750551;80;21627;-66
2021/03/14 10:21:49;;;;;;;5.60;5.05;;;;;;;14.20;48.36;99105.30;1759122;79;21177;-65
2021/03/14 10:24:27;;;;;;;5.22;4.70;;;;;;;14.27;48.35;99094.91;1802021;79;28824;-67
2021/03/14 10:27:09;;;;;;;5.17;4.53;;;;;;;14.26;48.25;99097.82;1776615;80;21182;-67
2021/03/14 10:29:42;;;;;;;4.90;4.45;;;;;;;14.28;48.22;99105.92;1793750;78;21169;-66
2021/03/14 10:32:19;;;;;;;5.22;4.72;;;;;;;14.28;48.16;99101.91;1755185;80;21147;-68
2021/03/14 10:34:58;;;;;;;5.33;4.67;;;;;;;14.30;48.10;99095.84;1775151;80;21068;-67
2021/03/14 10:37:32;;;;;;;5.30;4.80;;;;;;;14.33;48.11;99086.09;1776799;80;21115;-67
2021/03/14 10:40:09;;;;;;;5.37;4.87;;;;;;;14.32;48.12;99079.61;1765992;78;21210;-66
2021/03/14 10:42:44;;;;;;;5.45;4.95;;;;;;;14.37;48.10;99081.16;1804873;78;22101;-67
2021/03/14 10:45:19;;;;;;;5.45;4.95;;;;;;;14.40;48.01;99087.41;1797839;78;21188;-68
2021/03/14 10:48:03;;;;;;;5.37;4.87;;;;;;;14.43;47.98;99080.80;1811713;78;21151;-67
2021/03/14 10:50:34;;;;;;;5.55;4.95;;;;;;;14.46;47.89;99088.42;1794634;79;21490;-66
2021/03/14 10:53:17;;;;;;;5.17;4.67;;;;;;;14.49;47.82;99082.67;1796665;79;21223;-67
2021/03/14 10:55:48;;;;;;;5.25;4.75;;;;;;;14.50;47.74;99066.92;1778784;79;21966;-67
2021/03/14 10:58:18;;;;;;;5.62;5.12;;;;;;;14.53;47.70;99063.84;1807936;78;21216;-66
2021/03/14 11:00:53;;;;;;;5.85;5.35;;;;;;;14.54;47.62;99060.12;1780810;80;21199;-68
2021/03/14 11:03:30;;;;;;;5.20;4.62;;;;;;;14.55;47.59;99053.76;1794735;78;21056;-67
2021/03/14 11:06:17;;;;;;;4.47;4.05;;;;;;;14.55;47.58;99054.57;1804293;78;21167;-67
2021/03/14 11:08:53;;;;;;;5.25;4.85;;;;;;;14.55;47.58;99069.27;1801505;78;21386;-66
2021/03/14 11:11:42;;;;;;;5.55;4.92;;;;;;;14.56;47.57;99067.41;1775458;79;21175;-65
2021/03/14 11:14:40;;;;;;;5.58;5.08;;;;;;;14.55;47.55;99069.80;1814416;78;21179;-66
2021/03/14 11:17:37;;;;;;;5.92;5.40;;;;;;;14.54;47.54;99068.14;1775049;80;21162;-68
2021/03/14 11:20:20;;;;;;;5.35;4.85;;;;;;;14.53;47.53;99059.83;1799643;78;28688;-66
2021/03/14 11:22:52;;;;;;;5.05;4.55;;;;;;;14.47;47.54;99060.16;1782147;80;21195;-64
2021/03/14 11:25:20;;;;;;;5.40;4.90;;;;;;;14.47;47.53;99053.47;1800505;78;21343;-67
2021/03/14 11:27:48;;;;;;;5.83;5.28;;;;;;;14.45;47.56;99082.27;1788659;79;21195;-66
2021/03/14 11:30:19;;;;;;;5.65;5.15;;;;;;;14.45;47.54;99064.08;1817876;78;21183;-66
2021/03/14 11:32:46;;;;;;;6.10;5.50;;;;;;;14.43;47.52;99040.72;1787466;79;21230;-66
2021/03/14 11:35:37;;;;;;;6.25;5.30;;;;;;;14.45;47.56;99034.16;1759026;79;28263;-67
2021/03/14 11:38:06;;;;;;;7.05;6.35;;;;;;;14.41;47.55;99036.95;1720908;82;21186;-64
2021/03/14 11:40:56;;;;;;;6.67;5.72;;;;;;;14.39;47.58;99031.00;1740123;81;21347;-66
2021/03/14 11:43:37;;;;;;;6.17;5.40;;;;;;;14.40;47.62;99031.81;1764250;79;28289;-68
2021/03/14 11:46:18;;;;;;;6.30;5.70;;;;;;;14.33;47.62;99033.99;1757049;80;21172;-67
2021/03/14 11:48:50;;;;;;;6.50;5.72;;;;;;;14.32;47.67;99037.68;1756847;80;21371;-68
2021/03/14 11:51:20;;;;;;;5.42;4.90;;;;;;;14.30;47.71;99037.06;1756069;80;21287;-67
2021/03/14 11:53:48;;;;;;;6.25;5.65;;;;;;;14.30;47.69;99025.57;1760597;80;21154;-66
2021/03/14 11:56:16;;;;;;;6.10;5.55;;;;;;;14.30;47.72;99021.04;1769435;80;21189;-66
2021/03/14 11:58:57;;;;;;;6.05;5.45;;;;;;;14.31;47.73;99017.35;1747960;81;21198;-67